Time;durP1;ratioP1;P1;durP2;ratioP2;P2;SDS_P1;SDS_P2;PMS_P1;PMS_P2;Temp;Humidity;BMP_temperature;BMP_pressure;BME280_temperature;BME280_humidity;BME280_pressure;Samples;Min_cycle;Max_cycle;Signal;HPM_P1;HPM_P2
2023/12/20 00:01:29;;;;;;;0.25;0.20;;;;;;;6.76;100.00;101783.91;5094419;27;99237;-29
2023/12/20 00:03:54;;;;;;;0.30;0.28;;;;;;;6.71;100.00;101778.66;5094496;27;96680;-27
2023/12/20 00:06:19;;;;;;;0.43;0.20;;;;;;;6.71;100.00;101780.47;5094877;27;96773;-28
2023/12/20 00:08:45;;;;;;;0.63;0.28;;;;;;;6.74;100.00;101791.16;5094804;27;97436;-28
2023/12/20 00:11:10;;;;;;;0.40;0.20;;;;;;;6.72;100.00;101780.44;5094288;27;99257;-28
2023/12/20 00:13:35;;;;;;;2.10;0.40;;;;;;;6.67;100.00;101779.69;5094852;27;96773;-27
2023/12/20 00:16:01;;;;;;;4.20;0.63;;;;;;;6.72;100.00;101774.16;5094832;27;97056;-27
2023/12/20 00:18:26;;;;;;;1.02;0.40;;;;;;;6.72;100.00;101776.84;5094230;27;97928;-28
2023/12/20 00:20:51;;;;;;;6.30;1.17;;;;;;;6.68;100.00;101764.44;5094089;27;98836;-28
2023/12/20 00:23:17;;;;;;;0.25;0.20;;;;;;;6.70;100.00;101770.66;5094265;27;96870;-27
2023/12/20 00:25:42;;;;;;;2.30;0.68;;;;;;;6.72;100.00;101774.16;5094214;27;96833;-27
2023/12/20 00:28:08;;;;;;;3.80;0.40;;;;;;;6.73;100.00;101775.94;5094204;27;99418;-29
2023/12/20 00:30:33;;;;;;;1.45;1.05;;;;;;;6.70;100.00;101771.53;5094202;27;99108;-30
2023/12/20 00:32:58;;;;;;;0.22;0.20;;;;;;;6.71;100.00;101772.41;5093901;27;97152;-27
2023/12/20 00:35:24;;;;;;;0.82;0.45;;;;;;;6.75;100.00;101779.47;5094093;27;97032;-27
2023/12/20 00:37:49;;;;;;;0.17;0.15;;;;;;;6.73;100.00;101779.50;5094023;27;99514;-28
2023/12/20 00:40:15;;;;;;;0.88;0.38;;;;;;;6.72;100.00;101784.91;5094440;27;97213;-28
2023/12/20 00:42:40;;;;;;;9.95;0.43;;;;;;;6.71;100.00;101775.97;5094281;27;96445;-27
2023/12/20 00:45:06;;;;;;;0.20;0.17;;;;;;;6.74;100.00;101780.38;5094402;27;96768;-27
2023/12/20 00:47:31;;;;;;;0.40;0.30;;;;;;;6.78;100.00;101777.53;5093300;27;99363;-28
2023/12/20 00:49:58;;;;;;;6.70;0.45;;;;;;;6.80;100.00;101777.50;5075168;27;100730;-28
2023/12/20 00:52:23;;;;;;;0.93;0.60;;;;;;;6.78;100.00;101773.97;5075356;27;96580;-27
2023/12/20 00:54:49;;;;;;;3.75;0.38;;;;;;;6.77;100.00;101773.09;5093851;27;96855;-28
2023/12/20 00:57:15;;;;;;;0.22;0.22;;;;;;;6.80;100.00;101773.00;5093847;27;97853;-28
2023/12/20 00:59:40;;;;;;;3.60;0.50;;;;;;;6.74;100.00;101753.44;5093303;27;99330;-28
2023/12/20 01:02:06;;;;;;;0.95;0.20;;;;;;;6.83;100.00;101777.41;5093811;27;96677;-27
2023/12/20 01:04:31;;;;;;;1.25;0.70;;;;;;;6.83;100.00;101773.84;5094020;27;96801;-29
2023/12/20 01:06:58;;;;;;;1.45;0.52;;;;;;;6.86;100.00;101789.88;5093554;27;98992;-28
2023/12/20 01:09:26;;;;;;;0.35;0.32;;;;;;;6.83;100.00;101773.84;5093576;27;97846;-28
2023/12/20 01:11:51;;;;;;;1.77;0.60;;;;;;;6.91;100.00;101790.63;5093337;27;96646;-27
2023/12/20 01:14:17;;;;;;;0.20;0.20;;;;;;;6.93;100.00;101786.06;5093853;27;96935;-28
2023/12/20 01:16:42;;;;;;;7.00;1.05;;;;;;;6.93;100.00;101786.94;5093022;27;104774;-28
2023/12/20 01:19:07;;;;;;;4.75;0.45;;;;;;;6.92;100.00;101787.03;5093567;27;100040;-29
2023/12/20 01:21:33;;;;;;;0.10;0.10;;;;;;;6.87;100.00;101767.44;5093727;27;96544;-29
2023/12/20 01:23:58;;;;;;;1.13;0.38;;;;;;;6.87;100.00;101778.22;5093599;27;96833;-28
2023/12/20 01:26:23;;;;;;;1.92;0.63;;;;;;;6.87;100.00;101778.22;5093140;27;106311;-27
2023/12/20 01:28:49;;;;;;;0.40;0.40;;;;;;;6.89;100.00;101782.63;5093511;27;99584;-28
2023/12/20 01:31:14;;;;;;;1.40;0.40;;;;;;;6.90;100.00;101778.97;5093660;27;96599;-28
2023/12/20 01:33:39;;;;;;;2.25;0.75;;;;;;;6.87;100.00;101775.50;5093444;27;96835;-28
2023/12/20 01:36:05;;;;;;;0.57;0.40;;;;;;;6.87;100.00;101776.38;5092994;27;97549;-28
2023/12/20 01:38:30;;;;;;;3.03;0.43;;;;;;;6.93;100.00;101786.94;5093410;27;97258;-28
2023/12/20 01:40:56;;;;;;;1.75;0.43;;;;;;;6.92;100.00;101766.34;5093223;27;96586;-28
2023/12/20 01:43:21;;;;;;;1.08;0.45;;;;;;;6.93;100.00;101767.22;5093162;27;96849;-28
2023/12/20 01:45:47;;;;;;;3.17;0.40;;;;;;;6.90;100.00;101762.81;5093142;27;97420;-28
2023/12/20 01:48:15;;;;;;;1.60;0.25;;;;;;;6.91;100.00;101770.00;5074634;27;100998;-27
2023/12/20 01:50:43;;;;;;;1.45;0.50;;;;;;;6.91;100.00;101753.81;5074516;27;96571;-29
2023/12/20 01:53:10;;;;;;;2.42;0.47;;;;;;;6.94;100.00;101758.22;5075075;27;96870;-28
2023/12/20 01:55:39;;;;;;;0.38;0.22;;;;;;;6.90;100.00;101748.47;5074301;27;100928;-28
2023/12/20 01:58:05;;;;;;;0.95;0.52;;;;;;;6.95;100.00;101779.72;5074451;27;100725;-28
2023/12/20 02:00:31;;;;;;;1.42;0.32;;;;;;;6.93;100.00;101772.63;5073015;27;97001;-28
2023/12/20 02:03:00;;;;;;;1.90;0.65;;;;;;;6.93;100.00;101767.22;5093533;27;96789;-28
2023/12/20 02:05:27;;;;;;;2.70;1.20;;;;;;;6.93;100.00;101767.22;5074449;27;100902;-28
2023/12/20 02:07:53;;;;;;;0.70;0.35;;;;;;;6.94;100.00;101769.88;5074354;27;100987;-28
2023/12/20 02:10:18;;;;;;;2.33;0.70;;;;;;;6.99;100.00;101767.03;5093189;27;96761;-28
2023/12/20 02:12:43;;;;;;;2.92;0.57;;;;;;;6.94;100.00;101755.53;5093004;27;96784;-27
2023/12/20 02:15:09;;;;;;;3.95;0.68;;;;;;;6.98;100.00;101760.78;5092860;27;97947;-28
2023/12/20 02:17:36;;;;;;;5.25;0.38;;;;;;;6.98;100.00;101773.34;5093223;27;97242;-27
2023/12/20 02:20:01;;;;;;;4.53;1.02;;;;;;;6.95;100.00;101743.81;5093000;27;96807;-27
2023/12/20 02:22:26;;;;;;;1.65;0.63;;;;;;;6.98;100.00;101752.69;5095591;27;96803;-29
2023/12/20 02:24:51;;;;;;;0.73;0.55;;;;;;;6.98;100.00;101751.78;5095620;27;111213;-30
2023/12/20 02:27:19;;;;;;;4.75;0.80;;;;;;;6.97;100.00;101758.13;5096002;27;104376;-27
2023/12/20 02:29:47;;;;;;;7.38;0.85;;;;;;;6.98;100.00;101760.78;5095995;27;97626;-28
2023/12/20 02:32:12;;;;;;;0.30;0.30;;;;;;;6.94;100.00;101756.41;5077545;27;96786;-28
2023/12/20 02:34:38;;;;;;;3.30;0.68;;;;;;;6.95;100.00;101754.59;5095884;27;99088;-28
2023/12/20 02:37:03;;;;;;;0.17;0.13;;;;;;;6.96;100.00;101767.13;5096242;27;97382;-28
2023/12/20 02:39:28;;;;;;;0.10;0.10;;;;;;;6.92;100.00;101746.63;5096696;27;96570;-28
2023/12/20 02:41:54;;;;;;;0.47;0.25;;;;;;;6.90;100.00;101749.34;5096525;27;96932;-28
2023/12/20 02:44:19;;;;;;;0.38;0.38;;;;;;;6.97;100.00;101752.75;5096084;27;97911;-27
2023/12/20 02:46:44;;;;;;;3.65;0.80;;;;;;;6.90;100.00;101733.19;5095957;27;97305;-27
2023/12/20 02:49:10;;;;;;;0.85;0.13;;;;;;;7.02;100.00;101759.72;5095469;27;96809;-29
2023/12/20 02:51:38;;;;;;;0.30;0.20;;;;;;;6.97;100.00;101748.22;5095864;27;96786;-28
2023/12/20 02:54:03;;;;;;;3.33;0.70;;;;;;;7.01;100.00;101760.69;5095839;27;97934;-28
2023/12/20 02:56:29;;;;;;;0.73;0.43;;;;;;;7.02;100.00;101748.97;5095701;27;99038;-29
2023/12/20 02:58:54;;;;;;;2.40;0.60;;;;;;;6.99;100.00;101740.09;5095398;27;96883;-27
2023/12/20 03:01:19;;;;;;;1.77;0.50;;;;;;;7.01;100.00;101740.94;5095648;27;96888;-28
2023/12/20 03:03:45;;;;;;;9.15;0.70;;;;;;;7.00;100.00;101736.47;5095698;27;97949;-28
2023/12/20 03:06:10;;;;;;;0.43;0.30;;;;;;;7.01;100.00;101727.47;5096119;27;99943;-28
2023/12/20 03:08:35;;;;;;;1.65;0.50;;;;;;;7.07;100.00;101738.03;5095958;27;96477;-27
2023/12/20 03:11:01;;;;;;;0.55;0.22;;;;;;;7.07;100.00;101738.03;5095969;27;96841;-28
2023/12/20 03:13:26;;;;;;;1.48;0.50;;;;;;;7.02;100.00;101723.84;5094998;27;97954;-28
2023/12/20 03:15:51;;;;;;;1.92;0.60;;;;;;;7.07;100.00;101737.16;5095243;27;99571;-27
2023/12/20 03:18:18;;;;;;;1.40;0.28;;;;;;;7.07;100.00;101731.78;5095466;27;98473;-28
2023/12/20 03:20:43;;;;;;;2.95;0.80;;;;;;;7.10;100.00;101732.53;5076891;27;96919;-27
2023/12/20 03:23:08;;;;;;;1.23;0.40;;;;;;;7.10;100.00;101735.22;5076808;27;101445;-30
2023/12/20 03:25:34;;;;;;;0.03;0.03;;;;;;;7.11;100.00;101747.78;5095325;27;99719;-30
2023/12/20 03:28:00;;;;;;;6.18;0.70;;;;;;;7.06;100.00;101736.28;5095269;27;96647;-27
2023/12/20 03:30:25;;;;;;;0.93;0.43;;;;;;;7.06;100.00;101743.50;5095743;27;96777;-28
2023/12/20 03:32:51;;;;;;;1.00;0.05;;;;;;;7.06;100.00;101749.75;5093767;27;100876;-27
2023/12/20 03:35:17;;;;;;;2.63;0.73;;;;;;;7.00;100.00;101733.78;5095099;27;99617;-28
2023/12/20 03:37:42;;;;;;;2.33;0.50;;;;;;;7.04;100.00;101737.28;5094847;27;96540;-28
2023/12/20 03:40:07;;;;;;;0.25;0.20;;;;;;;7.03;100.00;101741.75;5095266;27;96822;-28
2023/12/20 03:42:33;;;;;;;3.53;0.35;;;;;;;7.08;100.00;101760.47;5095185;27;97818;-28
2023/12/20 03:44:58;;;;;;;0.30;0.20;;;;;;;7.02;100.00;101751.66;5094783;27;99095;-28
2023/12/20 03:47:23;;;;;;;12.13;0.57;;;;;;;7.06;100.00;101746.19;5095166;27;96505;-28
2023/12/20 03:49:49;;;;;;;0.93;0.43;;;;;;;7.00;100.00;101737.34;5094903;27;96725;-28
2023/12/20 03:52:14;;;;;;;2.17;0.80;;;;;;;6.92;100.00;101728.66;5094916;27;102817;-29
2023/12/20 03:54:42;;;;;;;2.47;0.38;;;;;;;6.94;100.00;101734.88;5094766;27;106740;-28
2023/12/20 03:57:07;;;;;;;0.32;0.25;;;;;;;6.93;100.00;101722.31;5076244;27;96693;-28
2023/12/20 03:59:37;;;;;;;2.15;0.63;;;;;;;6.95;100.00;101743.81;5094417;27;96858;-28
2023/12/20 04:02:02;;;;;;;0.63;0.47;;;;;;;6.93;100.00;101729.53;5093824;27;103098;-28
2023/12/20 04:04:28;;;;;;;1.92;0.95;;;;;;;6.90;100.00;101726.94;5094588;27;99441;-28
2023/12/20 04:06:53;;;;;;;1.30;0.40;;;;;;;6.93;100.00;101726.81;5094805;27;100307;-29
2023/12/20 04:09:18;;;;;;;4.75;0.52;;;;;;;6.89;100.00;101722.47;5094825;27;96814;-28
2023/12/20 04:11:44;;;;;;;0.65;0.22;;;;;;;6.88;100.00;101726.97;5094198;27;99340;-29
2023/12/20 04:14:10;;;;;;;2.28;0.28;;;;;;;6.86;100.00;101731.53;5094610;27;97908;-28
2023/12/20 04:16:35;;;;;;;0.55;0.40;;;;;;;6.90;100.00;101735.00;5094717;27;96601;-28
2023/12/20 04:19:00;;;;;;;1.10;0.38;;;;;;;6.88;100.00;101724.28;5095079;27;96814;-28
2023/12/20 04:21:26;;;;;;;1.05;0.35;;;;;;;6.93;100.00;101737.59;5094405;27;97821;-28
2023/12/20 04:23:51;;;;;;;14.88;1.10;;;;;;;6.88;100.00;101720.72;5094397;27;99114;-29
2023/12/20 04:26:17;;;;;;;4.20;0.77;;;;;;;6.91;100.00;101718.81;5094086;27;96657;-28
2023/12/20 04:28:42;;;;;;;0.60;0.25;;;;;;;6.90;100.00;101717.03;5094543;27;96745;-28
2023/12/20 04:31:08;;;;;;;0.00;0.00;;;;;;;6.92;100.00;101722.38;5094114;27;99447;-29
2023/12/20 04:33:33;;;;;;;3.45;0.88;;;;;;;6.97;100.00;101717.72;5093939;27;101020;-27
2023/12/20 04:36:00;;;;;;;0.13;0.13;;;;;;;6.93;100.00;101721.44;5094524;27;96517;-29
2023/12/20 04:38:25;;;;;;;0.95;0.45;;;;;;;6.92;100.00;101725.94;5075778;27;96846;-27
2023/12/20 04:40:51;;;;;;;0.43;0.30;;;;;;;6.93;100.00;101721.44;5094387;27;97474;-27
2023/12/20 04:43:16;;;;;;;0.77;0.38;;;;;;;6.86;100.00;101707.28;5094227;27;97810;-28
2023/12/20 04:45:41;;;;;;;2.03;0.35;;;;;;;6.79;100.00;101685.09;5093895;27;96477;-27
2023/12/20 04:48:07;;;;;;;1.23;0.15;;;;;;;6.89;100.00;101699.13;5094122;27;96853;-28
2023/12/20 04:50:33;;;;;;;4.40;0.60;;;;;;;6.85;100.00;101689.38;5093280;27;97644;-28
2023/12/20 04:52:58;;;;;;;0.22;0.17;;;;;;;6.85;100.00;101700.16;5075237;27;101372;-27
2023/12/20 04:55:23;;;;;;;0.10;0.10;;;;;;;6.82;100.00;101697.56;5093639;27;98246;-28
2023/12/20 04:57:49;;;;;;;0.38;0.30;;;;;;;6.85;100.00;101696.59;5093897;27;96783;-28
2023/12/20 05:00:15;;;;;;;1.77;0.88;;;;;;;6.78;100.00;101683.31;5092475;27;109458;-29
2023/12/20 05:02:41;;;;;;;1.00;0.38;;;;;;;6.86;100.00;101701.91;5075274;27;99164;-28
2023/12/20 05:05:07;;;;;;;6.28;0.63;;;;;;;6.85;100.00;101701.97;5093668;27;96574;-28
2023/12/20 05:07:32;;;;;;;0.15;0.15;;;;;;;6.84;100.00;101709.16;5075634;27;96927;-28
2023/12/20 05:09:58;;;;;;;2.95;0.55;;;;;;;6.85;100.00;101715.44;5093512;27;99233;-28
2023/12/20 05:12:23;;;;;;;1.50;0.50;;;;;;;6.85;100.00;101715.44;5093439;27;98829;-29
2023/12/20 05:14:49;;;;;;;0.10;0.10;;;;;;;6.79;100.00;101705.72;5093306;27;96629;-29
2023/12/20 05:17:14;;;;;;;5.97;0.82;;;;;;;6.82;100.00;101716.41;5094219;27;96796;-27
2023/12/20 05:19:39;;;;;;;0.38;0.20;;;;;;;6.85;100.00;101723.50;5093660;27;97906;-28
2023/12/20 05:22:05;;;;;;;13.30;0.70;;;;;;;6.86;100.00;101725.25;5093353;27;104461;-28
2023/12/20 05:24:30;;;;;;;3.60;0.77;;;;;;;6.77;100.00;101708.47;5093776;27;96507;-29
2023/12/20 05:26:55;;;;;;;7.35;0.52;;;;;;;6.80;100.00;101707.50;5093458;27;98017;-30
2023/12/20 05:29:21;;;;;;;11.35;1.20;;;;;;;6.79;100.00;101721.88;5093543;27;97889;-28
2023/12/20 05:31:46;;;;;;;0.70;0.50;;;;;;;6.84;100.00;101721.72;5093529;27;97294;-28
2023/12/20 05:34:11;;;;;;;1.60;0.25;;;;;;;6.83;100.00;101711.91;5093635;27;96708;-28
2023/12/20 05:36:38;;;;;;;6.82;0.32;;;;;;;6.79;100.00;101712.00;5093507;27;96800;-28
2023/12/20 05:39:04;;;;;;;5.45;0.45;;;;;;;6.86;100.00;101722.56;5074116;27;100846;-27
2023/12/20 05:41:30;;;;;;;1.23;0.20;;;;;;;6.84;100.00;101708.25;5092762;27;99904;-28
2023/12/20 05:43:57;;;;;;;0.15;0.15;;;;;;;6.79;100.00;101706.63;5074703;27;96574;-28
2023/12/20 05:46:23;;;;;;;1.30;0.82;;;;;;;6.81;100.00;101704.75;5074673;27;96669;-27
2023/12/20 05:48:48;;;;;;;1.55;0.57;;;;;;;6.76;100.00;101701.31;5093270;27;97456;-28
2023/12/20 05:51:14;;;;;;;0.88;0.08;;;;;;;6.78;100.00;101702.16;5092708;27;98787;-27
2023/12/20 05:53:39;;;;;;;1.42;0.35;;;;;;;6.81;100.00;101696.66;5093333;27;96527;-32
2023/12/20 05:56:05;;;;;;;1.55;0.30;;;;;;;6.85;100.00;101702.84;5094134;27;96741;-27
2023/12/20 05:58:32;;;;;;;0.82;0.38;;;;;;;6.87;100.00;101700.13;5077981;27;100953;-28
2023/12/20 06:00:57;;;;;;;0.90;0.45;;;;;;;6.87;100.00;101700.13;5077910;27;101015;-29
2023/12/20 06:03:23;;;;;;;3.72;0.60;;;;;;;6.89;100.00;101699.13;5096243;27;96591;-28
2023/12/20 06:05:48;;;;;;;0.57;0.22;;;;;;;6.90;100.00;101702.69;5096514;27;96737;-27
2023/12/20 06:08:14;;;;;;;3.72;0.52;;;;;;;6.92;100.00;101706.22;5096667;27;98054;-28
2023/12/20 06:10:40;;;;;;;1.70;0.60;;;;;;;6.92;100.00;101698.16;5077754;27;100459;-28
2023/12/20 06:13:06;;;;;;;4.63;0.98;;;;;;;6.92;100.00;101695.44;5077920;27;96634;-27
2023/12/20 06:15:32;;;;;;;1.70;0.45;;;;;;;6.96;100.00;101702.47;5096518;27;96826;-28
2023/12/20 06:17:57;;;;;;;1.65;0.28;;;;;;;7.01;100.00;101717.56;5096687;27;97345;-30
2023/12/20 06:20:22;;;;;;;3.17;0.30;;;;;;;6.96;100.00;101706.06;5096658;27;103211;-29
2023/12/20 06:22:48;;;;;;;0.88;0.35;;;;;;;7.01;100.00;101716.69;5096667;27;96629;-28
2023/12/20 06:25:13;;;;;;;1.45;0.52;;;;;;;6.97;100.00;101699.75;5096145;27;96859;-27
2023/12/20 06:27:38;;;;;;;1.85;0.40;;;;;;;7.06;100.00;101719.25;5095718;27;99327;-28
2023/12/20 06:30:04;;;;;;;4.60;0.73;;;;;;;7.09;100.00;101714.63;5096551;27;97298;-27
2023/12/20 06:32:30;;;;;;;1.20;0.30;;;;;;;7.10;100.00;101704.72;5096123;27;96564;-27
2023/12/20 06:34:55;;;;;;;2.97;0.88;;;;;;;7.14;100.00;101703.69;5096152;27;96795;-28
2023/12/20 06:37:20;;;;;;;3.13;0.35;;;;;;;7.14;100.00;101715.34;5096023;27;98818;-28
2023/12/20 06:39:46;;;;;;;1.42;0.40;;;;;;;7.07;100.00;101711.09;5096122;27;97915;-29
2023/12/20 06:42:12;;;;;;;5.30;0.68;;;;;;;7.16;100.00;101702.72;5096133;27;96571;-28
2023/12/20 06:44:38;;;;;;;0.40;0.20;;;;;;;7.13;100.00;101689.34;5077820;27;96823;-27
2023/12/20 06:47:04;;;;;;;7.00;0.60;;;;;;;7.17;100.00;101701.75;5095918;27;99674;-28
2023/12/20 06:49:29;;;;;;;6.38;0.73;;;;;;;7.16;100.00;101704.53;5077434;27;101357;-28
2023/12/20 06:51:55;;;;;;;2.72;1.17;;;;;;;7.16;100.00;101694.63;5095171;27;96872;-28
2023/12/20 06:54:20;;;;;;;2.22;0.43;;;;;;;7.22;100.00;101699.81;5096251;27;96636;-28
2023/12/20 06:56:45;;;;;;;6.50;0.60;;;;;;;7.23;100.00;101696.19;5095583;27;99766;-28
2023/12/20 06:59:11;;;;;;;0.98;0.32;;;;;;;7.23;100.00;101690.78;5095623;27;97858;-27
2023/12/20 07:01:36;;;;;;;0.15;0.00;;;;;;;7.19;100.00;101677.47;5096087;27;96648;-28
2023/12/20 07:04:01;;;;;;;1.65;0.40;;;;;;;7.18;100.00;101676.59;5096024;27;96972;-27
2023/12/20 07:06:27;;;;;;;8.63;0.57;;;;;;;7.20;100.00;101674.75;5095594;27;99216;-28
2023/12/20 07:08:52;;;;;;;6.22;0.57;;;;;;;7.20;100.00;101668.47;5095587;27;97309;-27
2023/12/20 07:11:17;;;;;;;4.68;0.73;;;;;;;7.20;100.00;101677.44;5095964;27;96596;-28
2023/12/20 07:13:43;;;;;;;9.57;1.05;;;;;;;7.19;100.00;101678.34;5095900;27;96801;-27
2023/12/20 07:16:08;;;;;;;2.38;0.52;;;;;;;7.20;100.00;101680.13;5095219;27;97867;-29
2023/12/20 07:18:34;;;;;;;0.30;0.20;;;;;;;7.18;100.00;101675.72;5095676;27;97796;-28
2023/12/20 07:20:59;;;;;;;1.20;0.43;;;;;;;7.20;100.00;101674.75;5095397;27;96604;-28
2023/12/20 07:23:25;;;;;;;4.15;0.10;;;;;;;7.15;100.00;101663.25;5095215;27;98317;-28
2023/12/20 07:25:51;;;;;;;1.75;0.70;;;;;;;7.16;100.00;101661.41;5095374;27;97916;-28
2023/12/20 07:28:16;;;;;;;3.00;0.57;;;;;;;7.13;100.00;101654.31;5095246;27;98894;-28
2023/12/20 07:30:41;;;;;;;1.00;0.40;;;;;;;7.14;100.00;101660.59;5095580;27;96847;-28
2023/12/20 07:33:08;;;;;;;0.52;0.30;;;;;;;7.07;100.00;101656.34;5095648;27;96826;-28
2023/12/20 07:35:34;;;;;;;7.43;0.75;;;;;;;7.07;100.00;101668.00;5094988;27;99519;-28
2023/12/20 07:37:59;;;;;;;2.83;0.55;;;;;;;7.08;100.00;101668.88;5095043;27;97622;-28
2023/12/20 07:40:25;;;;;;;1.40;0.75;;;;;;;7.04;100.00;101672.63;5076150;27;96936;-29
2023/12/20 07:42:50;;;;;;;0.28;0.13;;;;;;;6.97;100.00;101663.84;5095035;27;96921;-28
2023/12/20 07:45:15;;;;;;;4.93;0.60;;;;;;;7.02;100.00;101675.34;5095089;27;97586;-28
2023/12/20 07:47:41;;;;;;;3.67;0.50;;;;;;;7.03;100.00;101685.19;5094936;27;99174;-27
2023/12/20 07:50:06;;;;;;;2.65;1.05;;;;;;;7.03;100.00;101693.25;5095079;27;96591;-29
2023/12/20 07:52:32;;;;;;;3.85;0.68;;;;;;;7.05;100.00;101690.53;5094969;27;96811;-27
2023/12/20 07:54:57;;;;;;;0.40;0.15;;;;;;;7.06;100.00;101700.38;5094786;27;97836;-28
2023/12/20 07:57:23;;;;;;;1.85;0.25;;;;;;;7.04;100.00;101689.66;5095079;27;99184;-28
2023/12/20 07:59:49;;;;;;;0.63;0.35;;;;;;;7.11;100.00;101696.59;5075757;27;96831;-29
2023/12/20 08:02:14;;;;;;;1.13;0.82;;;;;;;7.14;100.00;101693.78;5094747;27;96568;-29
2023/12/20 08:04:40;;;;;;;0.90;0.10;;;;;;;7.17;100.00;101701.75;5075542;27;100705;-28
2023/12/20 08:07:06;;;;;;;0.50;0.40;;;;;;;7.19;100.00;101704.41;5094652;27;97928;-28
2023/12/20 08:09:33;;;;;;;2.65;0.90;;;;;;;7.16;100.00;101702.72;5076218;27;96663;-28
2023/12/20 08:11:59;;;;;;;0.93;0.50;;;;;;;7.26;100.00;101715.88;5076109;27;96823;-29
2023/12/20 08:14:25;;;;;;;0.30;0.30;;;;;;;7.23;100.00;101695.31;5094430;27;99366;-30
2023/12/20 08:16:51;;;;;;;3.60;0.63;;;;;;;7.18;100.00;101687.38;5094354;27;99283;-28
2023/12/20 08:19:16;;;;;;;0.20;0.08;;;;;;;7.28;100.00;101695.16;5093725;27;96639;-28
2023/12/20 08:21:42;;;;;;;3.88;0.60;;;;;;;7.30;100.00;101691.47;5075794;27;96853;-28
2023/12/20 08:24:08;;;;;;;2.90;0.47;;;;;;;7.35;100.00;101688.63;5094438;27;98432;-28
2023/12/20 08:26:33;;;;;;;1.25;0.28;;;;;;;7.32;100.00;101681.53;5094436;27;97862;-29
2023/12/20 08:28:58;;;;;;;0.82;0.40;;;;;;;7.35;100.00;101689.50;5093968;27;96659;-28
2023/12/20 08:31:24;;;;;;;0.75;0.40;;;;;;;7.41;100.00;101709.94;5094429;27;96866;-28
2023/12/20 08:33:49;;;;;;;2.15;0.40;;;;;;;7.41;100.00;101696.47;5094161;27;98411;-29
2023/12/20 08:36:17;;;;;;;0.80;0.38;;;;;;;7.47;100.00;101704.34;5093948;27;99166;-28
2023/12/20 08:38:43;;;;;;;0.35;0.32;;;;;;;7.44;100.00;101697.25;5075710;27;96576;-28
2023/12/20 08:41:08;;;;;;;1.38;0.52;;;;;;;7.48;100.00;101697.16;5094392;27;96753;-28
2023/12/20 08:43:35;;;;;;;0.70;0.40;;;;;;;7.48;100.00;101706.09;5093850;27;99334;-30
2023/12/20 08:46:01;;;;;;;5.93;0.28;;;;;;;7.56;100.00;101705.88;5075702;27;101289;-30
2023/12/20 08:48:26;;;;;;;8.60;1.10;;;;;;;7.56;100.00;101700.47;5075648;27;96657;-27
2023/12/20 08:50:52;;;;;;;15.80;0.75;;;;;;;7.60;100.00;101704.78;5094236;27;96741;-29
2023/12/20 08:53:20;;;;;;;3.03;0.57;;;;;;;7.57;100.00;101699.53;5093330;27;99368;-27
2023/12/20 08:55:46;;;;;;;0.68;0.40;;;;;;;7.54;100.00;101692.44;5075296;27;100540;-28
2023/12/20 08:58:11;;;;;;;2.38;1.00;;;;;;;7.58;100.00;101687.78;5093967;27;96516;-28
2023/12/20 09:00:38;;;;;;;7.45;0.43;;;;;;;7.62;100.00;101690.31;5093906;27;96774;-27
2023/12/20 09:03:04;;;;;;;0.20;0.17;;;;;;;7.62;100.00;101686.75;5093902;27;98015;-29
2023/12/20 09:05:30;;;;;;;1.52;0.30;;;;;;;7.66;100.00;101683.03;5093395;27;98837;-28
2023/12/20 09:07:55;;;;;;;1.13;0.40;;;;;;;7.64;100.00;101684.88;5093884;27;96548;-29
2023/12/20 09:10:22;;;;;;;1.90;0.70;;;;;;;7.68;100.00;101686.53;5094330;27;96801;-28
2023/12/20 09:12:54;;;;;;;0.40;0.30;;;;;;;7.75;100.00;101692.59;5075094;27;101376;-28
2023/12/20 09:15:19;;;;;;;;;;;;;;;7.77;100.00;101688.00;5094298;27;97873;-28
2023/12/20 09:17:45;;;;;;;1.20;0.43;;;;;;;7.79;100.00;101697.81;5093226;27;96538;-28
2023/12/20 09:20:10;;;;;;;5.32;0.28;;;;;;;7.80;100.00;101674.44;5093615;27;96837;-28
2023/12/20 09:22:35;;;;;;;5.82;0.70;;;;;;;7.80;100.00;101674.44;5093371;27;99689;-27
2023/12/20 09:25:01;;;;;;;2.90;0.88;;;;;;;7.81;100.00;101685.16;5093437;27;98050;-28
2023/12/20 09:27:27;;;;;;;3.45;0.60;;;;;;;7.86;100.00;101688.59;5075053;27;96739;-28
2023/12/20 09:29:53;;;;;;;1.85;0.40;;;;;;;7.84;100.00;101684.16;5093475;27;96862;-28
2023/12/20 09:32:20;;;;;;;2.70;1.00;;;;;;;7.91;100.00;101693.78;5093265;27;97913;-28
2023/12/20 09:34:45;;;;;;;0.10;0.03;;;;;;;7.93;100.00;101682.94;5075035;27;100816;-28
2023/12/20 09:37:11;;;;;;;3.67;0.70;;;;;;;7.92;100.00;101689.28;5093465;27;96564;-29
2023/12/20 09:39:36;;;;;;;0.55;0.30;;;;;;;7.92;100.00;101682.06;5093480;27;96751;-28
2023/12/20 09:42:04;;;;;;;1.67;0.38;;;;;;;7.96;100.00;101694.53;5092746;27;97918;-28
2023/12/20 09:44:30;;;;;;;1.48;0.60;;;;;;;7.95;100.00;101690.03;5074531;27;100842;-28
2023/12/20 09:46:57;;;;;;;4.13;1.40;;;;;;;7.95;100.00;101681.94;5074748;27;96643;-28
2023/12/20 09:49:22;;;;;;;1.00;0.43;;;;;;;8.02;100.00;101678.09;5074491;27;96855;-28
2023/12/20 09:51:50;;;;;;;7.50;0.85;;;;;;;8.03;100.00;101682.56;5092815;27;99533;-28
2023/12/20 09:54:21;;;;;;;1.20;0.65;;;;;;;8.06;100.00;101695.94;5074562;27;100833;-28
2023/12/20 09:56:46;;;;;;;3.85;0.28;;;;;;;8.04;100.00;101696.91;5093342;27;96489;-27
2023/12/20 09:59:12;;;;;;;3.83;0.80;;;;;;;8.08;100.00;101702.16;5074628;27;96886;-28
2023/12/20 10:01:40;;;;;;;3.13;0.85;;;;;;;8.18;100.00;101707.22;5074183;27;100693;-28
2023/12/20 10:04:08;;;;;;;2.33;0.77;;;;;;;8.17;100.00;101692.81;5074404;27;100974;-28
2023/12/20 10:06:36;;;;;;;2.45;1.02;;;;;;;8.19;100.00;101693.63;5074137;27;96568;-28
2023/12/20 10:09:02;;;;;;;1.38;0.28;;;;;;;8.23;100.00;101689.00;5074328;27;96870;-28
2023/12/20 10:11:28;;;;;;;0.55;0.28;;;;;;;8.26;100.00;101705.94;5074298;27;101015;-29
2023/12/20 10:14:00;;;;;;;5.82;1.05;;;;;;;8.18;100.00;101691.00;5092637;27;99296;-27
2023/12/20 10:16:25;;;;;;;0.75;0.45;;;;;;;8.25;100.00;101693.41;5093127;27;96742;-28
2023/12/20 10:18:53;;;;;;;0.90;0.63;;;;;;;8.25;100.00;101697.94;5093161;27;96763;-28
2023/12/20 10:21:18;;;;;;;2.88;1.17;;;;;;;8.27;100.00;101694.22;5074059;27;101237;-28
2023/12/20 10:23:43;;;;;;;1.77;0.22;;;;;;;8.38;100.00;101698.34;5093070;27;97293;-28
2023/12/20 10:26:09;;;;;;;0.57;0.30;;;;;;;8.36;100.00;101694.81;5092649;27;96641;-28
2023/12/20 10:28:35;;;;;;;3.55;0.80;;;;;;;8.35;100.00;101688.53;5092632;27;96868;-28
2023/12/20 10:31:01;;;;;;;0.52;0.20;;;;;;;8.36;100.00;101689.41;5073403;27;101251;-29
2023/12/20 10:33:28;;;;;;;0.98;0.38;;;;;;;8.39;100.00;101684.78;5092464;27;97828;-28
2023/12/20 10:35:55;;;;;;;0.70;0.32;;;;;;;8.36;100.00;101673.22;5074115;27;96718;-28
2023/12/20 10:38:21;;;;;;;1.05;0.20;;;;;;;8.33;100.00;101674.22;5074095;27;96898;-28
2023/12/20 10:40:46;;;;;;;1.00;0.40;;;;;;;8.37;100.00;101683.97;5092287;27;98757;-28
2023/12/20 10:43:13;;;;;;;0.98;0.30;;;;;;;8.41;100.00;101685.59;5094656;27;99295;-28
2023/12/20 10:45:38;;;;;;;1.05;0.40;;;;;;;8.37;100.00;101672.28;5077290;27;96660;-28
2023/12/20 10:48:04;;;;;;;1.67;0.30;;;;;;;8.40;100.00;101664.97;5096549;27;96802;-28
2023/12/20 10:50:31;;;;;;;4.53;0.60;;;;;;;8.44;100.00;101654.94;5095648;27;97348;-28
2023/12/20 10:52:57;;;;;;;9.77;0.70;;;;;;;8.49;100.00;101666.44;5077096;27;100690;-29
2023/12/20 10:55:24;;;;;;;1.20;0.55;;;;;;;8.49;100.00;101667.31;5076764;27;97052;-28
2023/12/20 10:57:51;;;;;;;2.10;0.57;;;;;;;8.50;100.00;101662.78;5077270;27;96904;-30
2023/12/20 11:00:19;;;;;;;0.75;0.43;;;;;;;8.44;100.00;101646.84;5076876;27;100946;-29
2023/12/20 11:02:44;;;;;;;3.15;0.63;;;;;;;8.49;100.00;101651.09;5095395;27;99268;-28
2023/12/20 11:05:51;;;;;;;6.03;1.00;;;;;;;8.56;100.00;101658.97;5096092;27;96562;-28
2023/12/20 11:08:32;;;;;;;2.55;0.60;;;;;;;8.58;100.00;101655.28;4992403;28;96951;-28
2023/12/20 11:11:14;;;;;;;2.40;0.60;;;;;;;8.68;100.00;101653.06;5070686;27;100520;-28
2023/12/20 11:14:05;;;;;;;7.50;0.75;;;;;;;8.73;100.00;101647.50;5077306;27;100787;-28
2023/12/20 11:16:37;;;;;;;2.03;0.32;;;;;;;8.74;100.00;101654.63;5082957;27;96614;-28
2023/12/20 11:19:05;;;;;;;;;;;;;;;8.74;100.00;101644.69;5077515;27;96953;-29